Nichioh Maru — JD3267 — position and weather

sailwx.info

Track history (hours):
 
Tides and Currents Weather Stations Pressure Air Temp Water Temp Dewpoint Dewpoint Depression Visibility Wind Speed Wind Dir Waves Ship Positions

Nichioh Maru

Last reported at 2017-Jul-21 02:58 UTC. Time now 2017-Jul-22 08:49 UTC.
Position N 34°37' E 134°56'.

Length 170 m; draft 6.5 m.

Type: Cargo ship. MMSI: 431003232.

Date/timePositionNaut miles runAvg speedWind from/ knotsBaromVisibWave heightAir tempDewpointWater temp
2017-Jul-21 02:58N 34°37' E 134°56'614.2
2017-Jul-21 02:30N 34°36' E 135°04'917.6
2017-Jul-21 02:00N 34°38' E 135°15'3 5.4
2017-Jul-21 01:25N 34°41' E 135°13'0 0.0
2017-Jul-21 00:55N 34°41' E 135°13'0 0.0
2017-Jul-21 00:19N 34°41' E 135°13'0 0.0
2017-Jul-20 23:55N 34°41' E 135°13'0 0.0
2017-Jul-20 23:25N 34°41' E 135°13'0 0.0
2017-Jul-20 23:00N 34°41' E 135°13'3 5.9
2017-Jul-20 22:31N 34°39' E 135°16'611.9
2017-Jul-20 22:00N 34°33' E 135°15'714.2
2017-Jul-20 21:30N 34°27' E 135°09'714.9
2017-Jul-20 21:00N 34°22' E 135°03'815.1
2017-Jul-20 20:30N 34°15' E 134°59'815.1
2017-Jul-20 20:00N 34°08' E 134°58'713.8
2017-Jul-20 19:30N 34°01' E 134°58'229 7.7
2017-Jul-19 13:41N 34°58' E 139°26'420.5
2017-Jul-19 13:30N 34°60' E 139°30'1020.9
2017-Jul-19 13:00N 35°06' E 139°41'917.7
2017-Jul-19 12:30N 35°13' E 139°46'613.0
2017-Jul-19 12:01N 35°19' E 139°43'815.3
2017-Jul-19 11:31N 35°26' E 139°46'4 7.9
2017-Jul-19 11:00N 35°30' E 139°46'0 0.0
2017-Jul-19 10:29N 35°30' E 139°46'0 0.0
2017-Jul-19 09:59N 35°30' E 139°46'0 0.0
2017-Jul-19 09:29N 35°30' E 139°46'0 0.0
2017-Jul-19 08:59N 35°30' E 139°46'0 0.0
2017-Jul-19 08:29N 35°30' E 139°46'0 0.0
2017-Jul-19 07:59N 35°30' E 139°46'0 0.0
2017-Jul-19 07:29N 35°30' E 139°46'0 0.0
2017-Jul-19 06:59N 35°30' E 139°46'0 0.0
2017-Jul-19 06:29N 35°30' E 139°46'0 0.0
2017-Jul-19 05:59N 35°30' E 139°46'0 0.0
2017-Jul-19 05:29N 35°30' E 139°46'0 0.0
2017-Jul-19 04:59N 35°30' E 139°46'0 0.0
2017-Jul-19 04:29N 35°30' E 139°46'0 0.0
2017-Jul-19 03:59N 35°30' E 139°46'0 0.0
2017-Jul-19 03:30N 35°30' E 139°46'4 7.5
2017-Jul-19 03:00N 35°28' E 139°42'611.5
2017-Jul-19 02:30N 35°23' E 139°46'612.3
2017-Jul-19 02:01N 35°19' E 139°40'1 1.9
2017-Jul-19 01:29N 35°19' E 139°39'0 0.0
2017-Jul-19 00:59N 35°19' E 139°39'0 0.0
2017-Jul-19 00:29N 35°19' E 139°39'0 0.0
2017-Jul-18 23:59N 35°19' E 139°39'0 0.0
2017-Jul-18 23:29N 35°19' E 139°39'0 0.0
2017-Jul-18 22:59N 35°19' E 139°39'0 0.0
2017-Jul-18 22:29N 35°19' E 139°39'0 0.0
2017-Jul-18 21:59N 35°19' E 139°39'0 0.0
2017-Jul-18 21:29N 35°19' E 139°39'2 3.8
2017-Jul-18 21:00N 35°19' E 139°41'0 0.7
2017-Jul-18 20:29N 35°20' E 139°41'0 0.0
2017-Jul-18 19:59N 35°20' E 139°41'0 0.0
2017-Jul-18 19:29N 35°20' E 139°41'0 0.0
2017-Jul-18 18:59N 35°20' E 139°41'0 0.0
2017-Jul-18 18:29N 35°20' E 139°41'0 0.0
2017-Jul-18 17:59N 35°20' E 139°41'0 0.0
2017-Jul-18 17:29N 35°20' E 139°41'0 0.0
2017-Jul-18 16:59N 35°20' E 139°41'0 0.0
2017-Jul-18 16:29N 35°20' E 139°41'0 0.0
2017-Jul-18 15:59N 35°20' E 139°41'0 0.0
2017-Jul-18 15:29N 35°20' E 139°41'0 0.0
2017-Jul-18 14:59N 35°20' E 139°41'0 0.0
2017-Jul-18 13:59N 35°20' E 139°41'0 0.0
2017-Jul-18 13:29N 35°20' E 139°41'0 0.0
2017-Jul-18 12:59N 35°20' E 139°41'0 0.1
2017-Jul-18 12:29N 35°20' E 139°41'0 0.0
2017-Jul-18 11:59N 35°20' E 139°41'0 0.0
2017-Jul-18 11:29N 35°20' E 139°41'0 0.1
2017-Jul-18 10:59N 35°20' E 139°41'1 2.8
2017-Jul-18 10:31N 35°20' E 139°43'612.7
2017-Jul-18 10:00N 35°14' E 139°47'815.8
2017-Jul-18 09:30N 35°07' E 139°44'1019.9
2017-Jul-18 09:00N 35°00' E 139°35'1121.0
2017-Jul-18 08:30N 34°54' E 139°25'22710.3
2017-Jul-17 10:22N 33°55' E 134°59'615.2
2017-Jul-17 10:00N 34°00' E 134°59'714.7
2017-Jul-17 09:30N 34°08' E 134°59'815.1
2017-Jul-17 09:00N 34°15' E 134°59'714.7
2017-Jul-17 08:30N 34°22' E 135°01'815.2
2017-Jul-17 08:00N 34°28' E 135°07'815.8
2017-Jul-17 07:30N 34°35' E 135°12'612.1
2017-Jul-17 07:00N 34°40' E 135°14'1 1.3
2017-Jul-17 06:15N 34°41' E 135°13'0 0.0
2017-Jul-17 05:51N 34°41' E 135°13'0 0.0
2017-Jul-17 05:27N 34°41' E 135°13'0 0.0
2017-Jul-17 04:39N 34°41' E 135°13'0 0.0
2017-Jul-17 04:27N 34°41' E 135°13'0 0.0
2017-Jul-17 03:57N 34°41' E 135°13'0 0.0
2017-Jul-17 03:27N 34°41' E 135°13'0 0.0
2017-Jul-17 02:57N 34°41' E 135°13'0 0.0
2017-Jul-17 02:27N 34°41' E 135°13'0 0.0
2017-Jul-17 01:57N 34°41' E 135°13'0 0.0
2017-Jul-17 01:21N 34°41' E 135°13'0 0.1
2017-Jul-17 01:00N 34°41' E 135°13'4 7.6
2017-Jul-17 00:31N 34°37' E 135°16'815.0
2017-Jul-17 00:00N 34°35' E 135°07'816.4
2017-Jul-16 23:29N 34°36' E 134°57'817.3
2017-Jul-16 23:00N 34°33' E 134°48'  
2017-Jul-14 03:39N 34°38' E 134°59'321.5
2017-Jul-14 03:30N 34°36' E 135°03'918.1
2017-Jul-14 03:00N 34°37' E 135°14'3 6.3
2017-Jul-14 02:30N 34°41' E 135°13'0 0.3
2017-Jul-14 01:58N 34°41' E 135°13'0 0.0
2017-Jul-14 01:28N 34°41' E 135°13'0 0.0
2017-Jul-14 00:52N 34°41' E 135°13'0 0.0
2017-Jul-14 00:28N 34°41' E 135°13'0 0.0
2017-Jul-13 23:58N 34°41' E 135°13'4 7.8
2017-Jul-13 23:30N 34°38' E 135°16'1019.8
2017-Jul-13 22:59N 34°29' E 135°09'1021.0
2017-Jul-13 22:30N 34°21' E 135°02'1019.7
2017-Jul-13 22:00N 34°11' E 134°60'1121.7
2017-Jul-13 21:29N 33°60' E 134°60'229 6.8
2017-Jul-12 11:58N 34°58' E 139°28'714.3
2017-Jul-12 11:30N 35°02' E 139°35'714.4
2017-Jul-12 11:00N 35°06' E 139°42'713.5
2017-Jul-12 10:30N 35°12' E 139°46'612.8
2017-Jul-12 10:00N 35°18' E 139°44'612.8
2017-Jul-12 09:31N 35°24' E 139°43'713.8
2017-Jul-12 09:00N 35°30' E 139°48'1 2.9
2017-Jul-12 08:30N 35°30' E 139°46'0 0.0
2017-Jul-12 08:00N 35°30' E 139°46'0 0.0
2017-Jul-12 07:30N 35°30' E 139°46'0 0.0
2017-Jul-12 07:00N 35°30' E 139°46'0 0.0
2017-Jul-12 06:30N 35°30' E 139°46'0 0.0
2017-Jul-12 06:00N 35°30' E 139°46'0 0.0
2017-Jul-12 05:30N 35°30' E 139°46'0 0.0
2017-Jul-12 05:00N 35°30' E 139°46'0 0.0
2017-Jul-12 04:30N 35°30' E 139°46'0 0.0
2017-Jul-12 04:00N 35°30' E 139°46'0 0.3
2017-Jul-12 03:30N 35°30' E 139°46'4 7.8
2017-Jul-12 03:00N 35°27' E 139°43'510.7
2017-Jul-12 02:30N 35°22' E 139°45'611.6
2017-Jul-12 02:01N 35°19' E 139°40'0 1.0
2017-Jul-12 01:31N 35°19' E 139°39'0 0.0
2017-Jul-12 00:57N 35°19' E 139°39'0 0.0
2017-Jul-12 00:28N 35°19' E 139°39'0 0.0
2017-Jul-12 00:00N 35°19' E 139°39'0 0.0
2017-Jul-11 23:31N 35°19' E 139°39'0 0.0
2017-Jul-11 23:00N 35°19' E 139°39'0 0.0
2017-Jul-11 22:30N 35°19' E 139°39'0 0.0
2017-Jul-11 22:00N 35°19' E 139°39'0 0.0
2017-Jul-11 21:31N 35°19' E 139°39'2 3.9
2017-Jul-11 21:00N 35°20' E 139°41'0 0.5
2017-Jul-11 20:29N 35°20' E 139°41'0 0.1
2017-Jul-11 19:59N 35°20' E 139°41'0 0.0
2017-Jul-11 19:29N 35°20' E 139°41'0 0.1
2017-Jul-11 18:59N 35°20' E 139°41'0 0.1
2017-Jul-11 18:29N 35°20' E 139°41'0 0.1
2017-Jul-11 17:59N 35°20' E 139°41'0 0.0
2017-Jul-11 17:29N 35°20' E 139°41'0 0.0
2017-Jul-11 16:59N 35°20' E 139°41'0 0.0
2017-Jul-11 16:29N 35°20' E 139°41'0 0.1
2017-Jul-11 15:59N 35°20' E 139°41'0 0.0
2017-Jul-11 15:29N 35°20' E 139°41'0 0.0
2017-Jul-11 14:59N 35°20' E 139°41'0 0.0
2017-Jul-11 14:29N 35°20' E 139°41'0 0.0
2017-Jul-11 13:59N 35°20' E 139°41'0 0.0
2017-Jul-11 13:29N 35°20' E 139°41'0 0.1
2017-Jul-11 12:59N 35°20' E 139°41'0 0.0
2017-Jul-11 12:29N 35°20' E 139°41'0 0.2
2017-Jul-11 11:59N 35°20' E 139°41'0 0.3
2017-Jul-11 11:30N 35°20' E 139°41'612.5
2017-Jul-11 11:00N 35°15' E 139°47'815.8
2017-Jul-11 10:31N 35°08' E 139°44'1121.6
2017-Jul-11 10:01N 34°60' E 139°36'1321.8
2017-Jul-11 09:24N 34°51' E 139°23'  
Track history (hours):
 
Tides and Currents Weather Stations Pressure Air Temp Water Temp Dewpoint Dewpoint Depression Visibility Wind Speed Wind Dir Waves Ship Positions

Nichioh Maru

Last reported at 2017-Jul-21 02:58 UTC. Time now 2017-Jul-22 08:49 UTC.
Position N 34°37' E 134°56'.

Length 170 m; draft 6.5 m.

Type: Cargo ship. MMSI: 431003232.

Date/timePositionNaut miles runAvg speedWind from/ knotsBaromVisibWave heightAir tempDewpointWater temp
2017-Jul-21 02:58N 34°37' E 134°56'614.2
2017-Jul-21 02:30N 34°36' E 135°04'917.6
2017-Jul-21 02:00N 34°38' E 135°15'3 5.4
2017-Jul-21 01:25N 34°41' E 135°13'0 0.0
2017-Jul-21 00:55N 34°41' E 135°13'0 0.0
2017-Jul-21 00:19N 34°41' E 135°13'0 0.0
2017-Jul-20 23:55N 34°41' E 135°13'0 0.0
2017-Jul-20 23:25N 34°41' E 135°13'0 0.0
2017-Jul-20 23:00N 34°41' E 135°13'3 5.9
2017-Jul-20 22:31N 34°39' E 135°16'611.9
2017-Jul-20 22:00N 34°33' E 135°15'714.2
2017-Jul-20 21:30N 34°27' E 135°09'714.9
2017-Jul-20 21:00N 34°22' E 135°03'815.1
2017-Jul-20 20:30N 34°15' E 134°59'815.1
2017-Jul-20 20:00N 34°08' E 134°58'713.8
2017-Jul-20 19:30N 34°01' E 134°58'229 7.7
2017-Jul-19 13:41N 34°58' E 139°26'420.5
2017-Jul-19 13:30N 34°60' E 139°30'1020.9
2017-Jul-19 13:00N 35°06' E 139°41'917.7
2017-Jul-19 12:30N 35°13' E 139°46'613.0
2017-Jul-19 12:01N 35°19' E 139°43'815.3
2017-Jul-19 11:31N 35°26' E 139°46'4 7.9
2017-Jul-19 11:00N 35°30' E 139°46'0 0.0
2017-Jul-19 10:29N 35°30' E 139°46'0 0.0
2017-Jul-19 09:59N 35°30' E 139°46'0 0.0
2017-Jul-19 09:29N 35°30' E 139°46'0 0.0
2017-Jul-19 08:59N 35°30' E 139°46'0 0.0
2017-Jul-19 08:29N 35°30' E 139°46'0 0.0
2017-Jul-19 07:59N 35°30' E 139°46'0 0.0
2017-Jul-19 07:29N 35°30' E 139°46'0 0.0
2017-Jul-19 06:59N 35°30' E 139°46'0 0.0
2017-Jul-19 06:29N 35°30' E 139°46'0 0.0
2017-Jul-19 05:59N 35°30' E 139°46'0 0.0
2017-Jul-19 05:29N 35°30' E 139°46'0 0.0
2017-Jul-19 04:59N 35°30' E 139°46'0 0.0
2017-Jul-19 04:29N 35°30' E 139°46'0 0.0
2017-Jul-19 03:59N 35°30' E 139°46'0 0.0
2017-Jul-19 03:30N 35°30' E 139°46'4 7.5
2017-Jul-19 03:00N 35°28' E 139°42'611.5
2017-Jul-19 02:30N 35°23' E 139°46'612.3
2017-Jul-19 02:01N 35°19' E 139°40'1 1.9
2017-Jul-19 01:29N 35°19' E 139°39'0 0.0
2017-Jul-19 00:59N 35°19' E 139°39'0 0.0
2017-Jul-19 00:29N 35°19' E 139°39'0 0.0
2017-Jul-18 23:59N 35°19' E 139°39'0 0.0
2017-Jul-18 23:29N 35°19' E 139°39'0 0.0
2017-Jul-18 22:59N 35°19' E 139°39'0 0.0
2017-Jul-18 22:29N 35°19' E 139°39'0 0.0
2017-Jul-18 21:59N 35°19' E 139°39'0 0.0
2017-Jul-18 21:29N 35°19' E 139°39'2 3.8
2017-Jul-18 21:00N 35°19' E 139°41'0 0.7
2017-Jul-18 20:29N 35°20' E 139°41'0 0.0
2017-Jul-18 19:59N 35°20' E 139°41'0 0.0
2017-Jul-18 19:29N 35°20' E 139°41'0 0.0
2017-Jul-18 18:59N 35°20' E 139°41'0 0.0
2017-Jul-18 18:29N 35°20' E 139°41'0 0.0
2017-Jul-18 17:59N 35°20' E 139°41'0 0.0
2017-Jul-18 17:29N 35°20' E 139°41'0 0.0
2017-Jul-18 16:59N 35°20' E 139°41'0 0.0
2017-Jul-18 16:29N 35°20' E 139°41'0 0.0
2017-Jul-18 15:59N 35°20' E 139°41'0 0.0
2017-Jul-18 15:29N 35°20' E 139°41'0 0.0
2017-Jul-18 14:59N 35°20' E 139°41'0 0.0
2017-Jul-18 13:59N 35°20' E 139°41'0 0.0
2017-Jul-18 13:29N 35°20' E 139°41'0 0.0
2017-Jul-18 12:59N 35°20' E 139°41'0 0.1
2017-Jul-18 12:29N 35°20' E 139°41'0 0.0
2017-Jul-18 11:59N 35°20' E 139°41'0 0.0
2017-Jul-18 11:29N 35°20' E 139°41'0 0.1
2017-Jul-18 10:59N 35°20' E 139°41'1 2.8
2017-Jul-18 10:31N 35°20' E 139°43'612.7
2017-Jul-18 10:00N 35°14' E 139°47'815.8
2017-Jul-18 09:30N 35°07' E 139°44'1019.9
2017-Jul-18 09:00N 35°00' E 139°35'1121.0
2017-Jul-18 08:30N 34°54' E 139°25'22710.3
2017-Jul-17 10:22N 33°55' E 134°59'615.2
2017-Jul-17 10:00N 34°00' E 134°59'714.7
2017-Jul-17 09:30N 34°08' E 134°59'815.1
2017-Jul-17 09:00N 34°15' E 134°59'714.7
2017-Jul-17 08:30N 34°22' E 135°01'815.2
2017-Jul-17 08:00N 34°28' E 135°07'815.8
2017-Jul-17 07:30N 34°35' E 135°12'612.1
2017-Jul-17 07:00N 34°40' E 135°14'1 1.3
2017-Jul-17 06:15N 34°41' E 135°13'0 0.0
2017-Jul-17 05:51N 34°41' E 135°13'0 0.0
2017-Jul-17 05:27N 34°41' E 135°13'0 0.0
2017-Jul-17 04:39N 34°41' E 135°13'0 0.0
2017-Jul-17 04:27N 34°41' E 135°13'0 0.0
2017-Jul-17 03:57N 34°41' E 135°13'0 0.0
2017-Jul-17 03:27N 34°41' E 135°13'0 0.0
2017-Jul-17 02:57N 34°41' E 135°13'0 0.0
2017-Jul-17 02:27N 34°41' E 135°13'0 0.0
2017-Jul-17 01:57N 34°41' E 135°13'0 0.0
2017-Jul-17 01:21N 34°41' E 135°13'0 0.1
2017-Jul-17 01:00N 34°41' E 135°13'4 7.6
2017-Jul-17 00:31N 34°37' E 135°16'815.0
2017-Jul-17 00:00N 34°35' E 135°07'816.4
2017-Jul-16 23:29N 34°36' E 134°57'817.3
2017-Jul-16 23:00N 34°33' E 134°48'  
2017-Jul-14 03:39N 34°38' E 134°59'321.5
2017-Jul-14 03:30N 34°36' E 135°03'918.1
2017-Jul-14 03:00N 34°37' E 135°14'3 6.3
2017-Jul-14 02:30N 34°41' E 135°13'0 0.3
2017-Jul-14 01:58N 34°41' E 135°13'0 0.0
2017-Jul-14 01:28N 34°41' E 135°13'0 0.0
2017-Jul-14 00:52N 34°41' E 135°13'0 0.0
2017-Jul-14 00:28N 34°41' E 135°13'0 0.0
2017-Jul-13 23:58N 34°41' E 135°13'4 7.8
2017-Jul-13 23:30N 34°38' E 135°16'1019.8
2017-Jul-13 22:59N 34°29' E 135°09'1021.0
2017-Jul-13 22:30N 34°21' E 135°02'1019.7
2017-Jul-13 22:00N 34°11' E 134°60'1121.7
2017-Jul-13 21:29N 33°60' E 134°60'229 6.8
2017-Jul-12 11:58N 34°58' E 139°28'714.3
2017-Jul-12 11:30N 35°02' E 139°35'714.4
2017-Jul-12 11:00N 35°06' E 139°42'713.5
2017-Jul-12 10:30N 35°12' E 139°46'612.8
2017-Jul-12 10:00N 35°18' E 139°44'612.8
2017-Jul-12 09:31N 35°24' E 139°43'713.8
2017-Jul-12 09:00N 35°30' E 139°48'1 2.9
2017-Jul-12 08:30N 35°30' E 139°46'0 0.0
2017-Jul-12 08:00N 35°30' E 139°46'0 0.0
2017-Jul-12 07:30N 35°30' E 139°46'0 0.0
2017-Jul-12 07:00N 35°30' E 139°46'0 0.0
2017-Jul-12 06:30N 35°30' E 139°46'0 0.0
2017-Jul-12 06:00N 35°30' E 139°46'0 0.0
2017-Jul-12 05:30N 35°30' E 139°46'0 0.0
2017-Jul-12 05:00N 35°30' E 139°46'0 0.0
2017-Jul-12 04:30N 35°30' E 139°46'0 0.0
2017-Jul-12 04:00N 35°30' E 139°46'0 0.3
2017-Jul-12 03:30N 35°30' E 139°46'4 7.8
2017-Jul-12 03:00N 35°27' E 139°43'510.7
2017-Jul-12 02:30N 35°22' E 139°45'611.6
2017-Jul-12 02:01N 35°19' E 139°40'0 1.0
2017-Jul-12 01:31N 35°19' E 139°39'0 0.0
2017-Jul-12 00:57N 35°19' E 139°39'0 0.0
2017-Jul-12 00:28N 35°19' E 139°39'0 0.0
2017-Jul-12 00:00N 35°19' E 139°39'0 0.0
2017-Jul-11 23:31N 35°19' E 139°39'0 0.0
2017-Jul-11 23:00N 35°19' E 139°39'0 0.0
2017-Jul-11 22:30N 35°19' E 139°39'0 0.0
2017-Jul-11 22:00N 35°19' E 139°39'0 0.0
2017-Jul-11 21:31N 35°19' E 139°39'2 3.9
2017-Jul-11 21:00N 35°20' E 139°41'0 0.5
2017-Jul-11 20:29N 35°20' E 139°41'0 0.1
2017-Jul-11 19:59N 35°20' E 139°41'0 0.0
2017-Jul-11 19:29N 35°20' E 139°41'0 0.1
2017-Jul-11 18:59N 35°20' E 139°41'0 0.1
2017-Jul-11 18:29N 35°20' E 139°41'0 0.1
2017-Jul-11 17:59N 35°20' E 139°41'0 0.0
2017-Jul-11 17:29N 35°20' E 139°41'0 0.0
2017-Jul-11 16:59N 35°20' E 139°41'0 0.0
2017-Jul-11 16:29N 35°20' E 139°41'0 0.1
2017-Jul-11 15:59N 35°20' E 139°41'0 0.0
2017-Jul-11 15:29N 35°20' E 139°41'0 0.0
2017-Jul-11 14:59N 35°20' E 139°41'0 0.0
2017-Jul-11 14:29N 35°20' E 139°41'0 0.0
2017-Jul-11 13:59N 35°20' E 139°41'0 0.0
2017-Jul-11 13:29N 35°20' E 139°41'0 0.1
2017-Jul-11 12:59N 35°20' E 139°41'0 0.0
2017-Jul-11 12:29N 35°20' E 139°41'0 0.2
2017-Jul-11 11:59N 35°20' E 139°41'0 0.3
2017-Jul-11 11:30N 35°20' E 139°41'612.5
2017-Jul-11 11:00N 35°15' E 139°47'815.8
2017-Jul-11 10:31N 35°08' E 139°44'1121.6
2017-Jul-11 10:01N 34°60' E 139°36'1321.8
2017-Jul-11 09:24N 34°51' E 139°23'  

Dump ship's entire track history